Time;durP1;ratioP1;P1;durP2;ratioP2;P2;SDS_P1;SDS_P2;PMS_P1;PMS_P2;Temp;Humidity;BMP_temperature;BMP_pressure;BME280_temperature;BME280_humidity;BME280_pressure;Samples;Min_cycle;Max_cycle;Signal;HPM_P1;HPM_P2
2021/01/02 00:00:44;;;;;;;15.70;10.90;;;;;;;;;;5033853;28;20426;-69
2021/01/02 00:03:19;;;;;;;19.07;11.67;;;;;;;;;;5032600;28;20466;-69
2021/01/02 00:06:04;;;;;;;23.50;11.33;;;;;;;;;;5034701;28;20437;-69
2021/01/02 00:08:31;;;;;;;23.07;11.80;;;;;;;;;;5014377;28;20408;-69
2021/01/02 00:11:00;;;;;;;19.70;11.30;;;;;;;;;;5014467;28;20405;-69
2021/01/02 00:13:32;;;;;;;19.20;11.37;;;;;;;;;;5033783;28;20456;-68
2021/01/02 00:16:07;;;;;;;21.80;11.13;;;;;;;;;;5033922;28;20441;-68
2021/01/02 00:18:37;;;;;;;22.03;13.00;;;;;;;;;;5033954;28;20403;-68
2021/01/02 00:21:25;;;;;;;19.37;11.13;;;;;;;;;;5032295;28;20433;-72
2021/01/02 00:23:50;;;;;;;17.77;10.90;;;;;;;;;;5032966;28;20493;-68
2021/01/02 00:26:30;;;;;;;21.27;12.23;;;;;;;;;;5032924;28;20411;-69
2021/01/02 00:28:57;;;;;;;16.30;11.10;;;;;;;;;;5033623;28;20392;-69
2021/01/02 00:31:49;;;;;;;19.73;12.00;;;;;;;;;;5032569;28;20968;-69
2021/01/02 00:34:15;;;;;;;18.63;12.30;;;;;;;;;;5034362;28;20565;-69
2021/01/02 00:37:04;;;;;;;16.00;10.73;;;;;;;;;;5032829;28;20513;-69
2021/01/02 00:39:42;;;;;;;17.73;10.67;;;;;;;;;;5033895;28;20385;-69
2021/01/02 00:42:13;;;;;;;20.63;11.43;;;;;;;;;;5033361;28;20430;-69
2021/01/02 00:44:41;;;;;;;17.53;10.00;;;;;;;;;;5033791;28;20584;-69
2021/01/02 00:47:09;;;;;;;19.27;11.40;;;;;;;;;;5032415;28;20427;-68
2021/01/02 00:49:37;;;;;;;17.87;12.57;;;;;;;;;;5033441;28;20793;-69
2021/01/02 00:52:23;;;;;;;18.03;10.57;;;;;;;;;;5029952;28;20438;-68
2021/01/02 00:54:59;;;;;;;21.07;11.50;;;;;;;;;;5030386;28;20434;-68
2021/01/02 00:57:35;;;;;;;16.70;9.37;;;;;;;;;;5032952;28;20469;-69
2021/01/02 01:00:01;;;;;;;16.83;10.90;;;;;;;;;;5048745;28;20415;-70
2021/01/02 01:02:46;;;;;;;17.33;11.00;;;;;;;;;;5031926;28;20961;-70
2021/01/02 01:05:20;;;;;;;17.37;9.57;;;;;;;;;;5033386;28;20483;-69
2021/01/02 01:07:51;;;;;;;17.77;10.40;;;;;;;;;;5032326;28;20426;-69
2021/01/02 01:10:20;;;;;;;15.70;8.67;;;;;;;;;;5033495;28;20876;-69
2021/01/02 01:12:47;;;;;;;14.80;9.67;;;;;;;;;;5032188;28;20457;-69
2021/01/02 01:15:13;;;;;;;18.63;11.27;;;;;;;;;;5033391;28;20808;-69
2021/01/02 01:17:49;;;;;;;16.27;9.70;;;;;;;;;;5032177;28;20448;-69
2021/01/02 01:20:17;;;;;;;16.23;10.63;;;;;;;;;;5033067;28;20399;-69
2021/01/02 01:22:49;;;;;;;16.17;10.10;;;;;;;;;;5030936;28;20461;-69
2021/01/02 01:25:31;;;;;;;16.57;10.20;;;;;;;;;;5032996;28;20400;-69
2021/01/02 01:28:04;;;;;;;19.90;11.33;;;;;;;;;;5030488;28;20533;-69
2021/01/02 01:30:36;;;;;;;16.70;9.43;;;;;;;;;;5033441;28;20387;-69
2021/01/02 01:33:03;;;;;;;17.40;9.50;;;;;;;;;;5032096;28;20451;-69
2021/01/02 01:35:30;;;;;;;15.60;10.50;;;;;;;;;;5048303;28;20498;-69
2021/01/02 01:37:57;;;;;;;17.03;9.20;;;;;;;;;;5031887;28;20438;-69
2021/01/02 01:40:24;;;;;;;14.50;9.00;;;;;;;;;;5032673;28;20778;-69
2021/01/02 01:43:01;;;;;;;20.60;12.33;;;;;;;;;;5031923;28;20857;-69
2021/01/02 01:45:39;;;;;;;20.87;12.63;;;;;;;;;;5032712;28;20395;-69
2021/01/02 01:48:12;;;;;;;17.30;10.80;;;;;;;;;;5031444;28;20518;-69
2021/01/02 01:50:48;;;;;;;19.10;11.23;;;;;;;;;;5032696;28;20486;-69
2021/01/02 01:53:33;;;;;;;18.37;11.63;;;;;;;;;;5028893;28;20556;-69
2021/01/02 01:56:00;;;;;;;19.53;11.97;;;;;;;;;;5032606;28;20812;-69
2021/01/02 01:58:49;;;;;;;19.50;10.37;;;;;;;;;;5031451;28;20522;-69
2021/01/02 02:01:17;;;;;;;21.80;12.20;;;;;;;;;;5016930;28;20411;-69
2021/01/02 02:03:59;;;;;;;20.70;11.90;;;;;;;;;;5033752;28;20549;-69
2021/01/02 02:06:33;;;;;;;18.73;11.17;;;;;;;;;;5035407;28;20514;-71
2021/01/02 02:09:00;;;;;;;19.83;10.90;;;;;;;;;;5035599;28;20432;-69
2021/01/02 02:11:32;;;;;;;20.00;13.53;;;;;;;;;;5036346;28;20403;-69
2021/01/02 02:14:09;;;;;;;17.30;11.80;;;;;;;;;;5035564;28;20450;-69
2021/01/02 02:16:45;;;;;;;20.70;10.93;;;;;;;;;;5036408;28;20441;-69
2021/01/02 02:19:28;;;;;;;15.67;10.00;;;;;;;;;;5036139;28;20433;-69
2021/01/02 02:21:56;;;;;;;23.43;10.90;;;;;;;;;;5035336;28;20513;-69
2021/01/02 02:24:23;;;;;;;17.67;10.93;;;;;;;;;;5034934;28;20963;-69
2021/01/02 02:26:53;;;;;;;19.00;12.10;;;;;;;;;;5036187;28;20409;-69
2021/01/02 02:29:24;;;;;;;24.20;13.10;;;;;;;;;;5035165;28;20507;-69
2021/01/02 02:31:54;;;;;;;20.83;12.87;;;;;;;;;;5036142;28;20412;-69
2021/01/02 02:34:20;;;;;;;22.20;14.10;;;;;;;;;;5036181;28;20470;-69
2021/01/02 02:36:46;;;;;;;19.07;12.30;;;;;;;;;;5035326;28;20583;-69
2021/01/02 02:39:13;;;;;;;19.20;11.70;;;;;;;;;;5036713;28;20484;-69
2021/01/02 02:41:50;;;;;;;20.47;13.30;;;;;;;;;;5037161;28;20872;-69
2021/01/02 02:44:26;;;;;;;19.53;13.80;;;;;;;;;;5035445;28;20462;-68
2021/01/02 02:47:12;;;;;;;18.73;12.07;;;;;;;;;;5036408;28;20383;-70
2021/01/02 02:49:40;;;;;;;21.30;11.97;;;;;;;;;;5034681;28;20464;-69
2021/01/02 02:52:20;;;;;;;22.50;12.37;;;;;;;;;;5033627;28;20427;-68
2021/01/02 02:54:46;;;;;;;22.37;11.90;;;;;;;;;;5032327;28;20484;-69
2021/01/02 02:57:13;;;;;;;27.53;13.57;;;;;;;;;;5031479;28;20865;-69
2021/01/02 02:59:39;;;;;;;16.77;11.90;;;;;;;;;;5033529;28;20431;-68
2021/01/02 03:02:05;;;;;;;25.93;11.70;;;;;;;;;;5033224;28;20431;-69
2021/01/02 03:04:33;;;;;;;22.43;12.37;;;;;;;;;;5034020;28;20461;-68
2021/01/02 03:07:01;;;;;;;21.20;11.40;;;;;;;;;;5035333;28;20891;-68
2021/01/02 03:09:27;;;;;;;20.47;13.20;;;;;;;;;;5034516;28;20430;-68
2021/01/02 03:11:53;;;;;;;21.03;12.10;;;;;;;;;;5035587;28;20752;-69
2021/01/02 03:14:19;;;;;;;21.00;11.70;;;;;;;;;;5033733;28;20455;-69
2021/01/02 03:16:45;;;;;;;15.80;10.83;;;;;;;;;;5035229;28;20407;-69
2021/01/02 03:19:11;;;;;;;21.00;11.13;;;;;;;;;;5049627;28;20993;-69
2021/01/02 03:21:37;;;;;;;18.20;10.70;;;;;;;;;;5035078;28;20414;-69
2021/01/02 03:24:07;;;;;;;16.50;11.83;;;;;;;;;;5033875;28;20509;-69
2021/01/02 03:26:33;;;;;;;20.87;11.63;;;;;;;;;;5035291;28;20403;-69
2021/01/02 03:28:59;;;;;;;10.93;8.47;;;;;;;;;;5034599;28;20508;-69
2021/01/02 03:31:26;;;;;;;15.90;8.47;;;;;;;;;;5034908;28;20403;-69
2021/01/02 03:33:52;;;;;;;17.90;7.53;;;;;;;;;;5034034;28;20440;-69
2021/01/02 03:36:18;;;;;;;15.90;7.20;;;;;;;;;;5034732;28;20406;-69
2021/01/02 03:38:55;;;;;;;11.10;7.37;;;;;;;;;;5047814;28;20506;-69
2021/01/02 03:41:21;;;;;;;20.87;9.60;;;;;;;;;;5035164;28;20385;-69
2021/01/02 03:43:47;;;;;;;12.33;7.20;;;;;;;;;;5034257;28;21013;-69
2021/01/02 03:46:13;;;;;;;10.30;7.90;;;;;;;;;;5033780;28;20419;-69
2021/01/02 03:48:39;;;;;;;11.40;7.30;;;;;;;;;;5033488;28;20880;-69
2021/01/02 03:51:06;;;;;;;9.23;6.90;;;;;;;;;;5034820;28;20446;-69
2021/01/02 03:53:32;;;;;;;10.07;6.67;;;;;;;;;;5033127;28;20582;-69
2021/01/02 03:55:58;;;;;;;12.00;7.73;;;;;;;;;;5034416;28;20963;-69
2021/01/02 03:58:24;;;;;;;10.00;6.27;;;;;;;;;;5031438;28;20513;-69
2021/01/02 04:00:50;;;;;;;9.37;6.40;;;;;;;;;;5034258;28;20436;-69
2021/01/02 04:03:16;;;;;;;12.37;7.73;;;;;;;;;;5033982;28;20883;-71
2021/01/02 04:05:46;;;;;;;15.50;7.50;;;;;;;;;;5033697;28;20454;-68
2021/01/02 04:08:12;;;;;;;14.03;7.70;;;;;;;;;;5049419;28;20426;-68
2021/01/02 04:10:38;;;;;;;12.60;7.90;;;;;;;;;;5033349;28;20427;-68
2021/01/02 04:13:04;;;;;;;15.93;8.03;;;;;;;;;;5034008;28;20515;-68
2021/01/02 04:15:30;;;;;;;12.97;7.60;;;;;;;;;;5033174;28;20951;-68
2021/01/02 04:17:56;;;;;;;9.73;6.57;;;;;;;;;;5034303;28;20395;-68
2021/01/02 04:20:24;;;;;;;11.30;7.50;;;;;;;;;;5032600;28;20885;-68
2021/01/02 04:22:50;;;;;;;11.33;7.53;;;;;;;;;;5032297;28;20447;-68
2021/01/02 04:25:16;;;;;;;12.80;7.37;;;;;;;;;;5033020;28;20483;-68
2021/01/02 04:27:42;;;;;;;16.83;7.83;;;;;;;;;;5033905;28;20892;-68
2021/01/02 04:30:08;;;;;;;13.67;6.90;;;;;;;;;;5032951;28;20442;-68
2021/01/02 04:32:34;;;;;;;7.80;5.83;;;;;;;;;;5033687;28;20911;-68
2021/01/02 04:35:00;;;;;;;9.27;7.20;;;;;;;;;;5032769;28;20446;-68
2021/01/02 04:37:30;;;;;;;10.83;6.60;;;;;;;;;;5033703;28;20407;-69
2021/01/02 04:39:57;;;;;;;10.83;7.17;;;;;;;;;;5033074;28;20438;-68
2021/01/02 04:42:23;;;;;;;13.03;7.20;;;;;;;;;;5033799;28;20794;-68
2021/01/02 04:44:50;;;;;;;12.33;6.93;;;;;;;;;;5032853;28;20815;-68
2021/01/02 04:47:16;;;;;;;8.37;6.17;;;;;;;;;;5033502;28;20462;-68
2021/01/02 04:49:42;;;;;;;11.33;7.80;;;;;;;;;;5032499;28;20442;-68
2021/01/02 04:52:09;;;;;;;10.93;6.80;;;;;;;;;;5033461;28;20434;-69
2021/01/02 04:54:38;;;;;;;9.73;7.43;;;;;;;;;;5033291;28;20435;-69
2021/01/02 04:57:04;;;;;;;10.67;7.17;;;;;;;;;;5033440;28;20439;-69
2021/01/02 04:59:31;;;;;;;11.57;7.13;;;;;;;;;;5029166;28;20427;-68
2021/01/02 05:01:58;;;;;;;15.10;8.70;;;;;;;;;;5033271;28;20425;-68
2021/01/02 05:04:24;;;;;;;8.80;6.10;;;;;;;;;;5032400;28;20508;-68
2021/01/02 05:06:50;;;;;;;11.60;7.00;;;;;;;;;;5033598;28;20408;-68
2021/01/02 05:09:17;;;;;;;9.83;6.47;;;;;;;;;;5032816;28;20423;-68
2021/01/02 05:11:43;;;;;;;14.30;7.40;;;;;;;;;;5033834;28;20490;-68
2021/01/02 05:14:09;;;;;;;12.57;8.17;;;;;;;;;;5032321;28;20454;-68
2021/01/02 05:16:39;;;;;;;12.03;7.50;;;;;;;;;;5033127;28;20407;-68
2021/01/02 05:19:06;;;;;;;11.27;7.20;;;;;;;;;;5031200;28;20427;-68
2021/01/02 05:21:34;;;;;;;14.53;7.60;;;;;;;;;;5033300;28;20403;-68
2021/01/02 05:24:02;;;;;;;9.10;6.67;;;;;;;;;;5032641;28;21445;-68
2021/01/02 05:26:29;;;;;;;12.10;7.43;;;;;;;;;;5032989;28;20414;-68
2021/01/02 05:29:13;;;;;;;9.63;7.20;;;;;;;;;;5029648;28;20764;-68
2021/01/02 05:31:40;;;;;;;12.37;8.30;;;;;;;;;;5032990;28;20457;-68
2021/01/02 05:34:07;;;;;;;11.73;7.00;;;;;;;;;;5030215;28;20450;-68
2021/01/02 05:36:33;;;;;;;13.27;8.50;;;;;;;;;;5035957;28;20482;-68
2021/01/02 05:39:00;;;;;;;12.10;6.63;;;;;;;;;;5036983;28;20884;-68
2021/01/02 05:41:26;;;;;;;16.00;7.37;;;;;;;;;;5035238;28;20430;-68
2021/01/02 05:43:52;;;;;;;9.90;7.23;;;;;;;;;;5036816;28;20447;-68
2021/01/02 05:46:22;;;;;;;10.93;6.83;;;;;;;;;;5036029;28;20461;-68
2021/01/02 05:48:48;;;;;;;11.47;7.00;;;;;;;;;;5037051;28;20775;-69
2021/01/02 05:51:15;;;;;;;11.30;7.57;;;;;;;;;;5035675;28;20484;-68
2021/01/02 05:53:41;;;;;;;12.40;7.40;;;;;;;;;;5036962;28;20784;-68
2021/01/02 05:56:08;;;;;;;12.70;8.57;;;;;;;;;;5035888;28;20434;-68
2021/01/02 05:58:42;;;;;;;12.13;6.83;;;;;;;;;;5036806;28;20495;-68
2021/01/02 06:01:17;;;;;;;13.70;9.23;;;;;;;;;;5033769;28;20986;-68
2021/01/02 06:03:44;;;;;;;14.97;8.30;;;;;;;;;;5036593;28;20557;-68
2021/01/02 06:06:12;;;;;;;11.50;7.97;;;;;;;;;;5035156;28;20427;-68
2021/01/02 06:08:39;;;;;;;16.63;8.60;;;;;;;;;;5035871;28;20433;-69
2021/01/02 06:11:07;;;;;;;10.10;6.80;;;;;;;;;;5049849;28;20431;-68
2021/01/02 06:13:34;;;;;;;14.73;8.17;;;;;;;;;;5036401;28;20884;-69
2021/01/02 06:16:01;;;;;;;12.00;6.27;;;;;;;;;;5035522;28;20958;-68
2021/01/02 06:18:28;;;;;;;14.50;7.27;;;;;;;;;;5036719;28;20417;-69
2021/01/02 06:20:56;;;;;;;11.83;8.10;;;;;;;;;;5035338;28;20407;-68
2021/01/02 06:23:22;;;;;;;11.10;7.13;;;;;;;;;;5034799;28;20470;-69
2021/01/02 06:25:49;;;;;;;15.03;7.67;;;;;;;;;;5035569;28;20452;-68
2021/01/02 06:28:15;;;;;;;9.63;7.17;;;;;;;;;;5036211;28;20403;-68
2021/01/02 06:30:42;;;;;;;13.10;7.33;;;;;;;;;;5036460;28;20770;-69
2021/01/02 06:33:14;;;;;;;13.13;7.30;;;;;;;;;;5035234;28;20955;-68
2021/01/02 06:35:40;;;;;;;11.80;7.50;;;;;;;;;;5034080;28;20925;-68
2021/01/02 06:38:06;;;;;;;12.97;7.00;;;;;;;;;;5035001;28;20484;-68
2021/01/02 06:40:37;;;;;;;12.93;6.67;;;;;;;;;;5036133;28;20411;-68
2021/01/02 06:43:07;;;;;;;14.90;9.13;;;;;;;;;;5034988;28;20488;-68
2021/01/02 06:45:39;;;;;;;10.90;7.20;;;;;;;;;;5034434;28;20499;-68
2021/01/02 06:48:17;;;;;;;12.27;7.47;;;;;;;;;;5035171;28;20430;-68
2021/01/02 06:50:43;;;;;;;11.50;8.77;;;;;;;;;;5036363;28;20403;-69
2021/01/02 06:53:25;;;;;;;11.60;8.00;;;;;;;;;;5034788;28;20575;-68
2021/01/02 06:56:00;;;;;;;15.37;8.70;;;;;;;;;;5050903;28;20430;-68
2021/01/02 06:58:36;;;;;;;13.50;7.80;;;;;;;;;;5015963;28;20416;-68
2021/01/02 07:01:07;;;;;;;14.43;8.97;;;;;;;;;;5017339;28;20403;-68
2021/01/02 07:03:38;;;;;;;15.63;10.10;;;;;;;;;;5032951;28;20467;-68
2021/01/02 07:06:20;;;;;;;14.40;8.60;;;;;;;;;;5036389;28;20421;-68
2021/01/02 07:08:58;;;;;;;14.87;8.80;;;;;;;;;;5037057;28;20415;-69
2021/01/02 07:11:30;;;;;;;11.43;8.50;;;;;;;;;;5035484;28;20422;-68
2021/01/02 07:14:08;;;;;;;15.27;9.73;;;;;;;;;;5036673;28;20522;-69
2021/01/02 07:16:45;;;;;;;13.70;8.80;;;;;;;;;;5035760;28;20449;-69
2021/01/02 07:19:26;;;;;;;13.90;8.00;;;;;;;;;;5034019;28;20433;-68
2021/01/02 07:22:03;;;;;;;14.37;8.20;;;;;;;;;;5034053;28;20945;-68
2021/01/02 07:24:29;;;;;;;16.97;9.20;;;;;;;;;;5035164;28;20459;-68
2021/01/02 07:26:58;;;;;;;15.83;9.03;;;;;;;;;;5034061;28;20441;-68
2021/01/02 07:29:24;;;;;;;17.83;10.40;;;;;;;;;;5035186;28;20407;-68
2021/01/02 07:31:50;;;;;;;14.60;9.57;;;;;;;;;;5033962;28;20773;-68
2021/01/02 07:34:20;;;;;;;16.13;8.60;;;;;;;;;;5034785;28;20423;-68
2021/01/02 07:36:47;;;;;;;13.07;8.20;;;;;;;;;;5033722;28;20434;-68
2021/01/02 07:39:13;;;;;;;18.30;8.83;;;;;;;;;;5034719;28;20416;-68
2021/01/02 07:41:40;;;;;;;15.53;9.50;;;;;;;;;;5033914;28;20439;-68
2021/01/02 07:44:06;;;;;;;14.60;8.97;;;;;;;;;;5034819;28;20516;-68
2021/01/02 07:46:33;;;;;;;13.80;9.73;;;;;;;;;;5033684;28;20839;-68
2021/01/02 07:48:59;;;;;;;18.67;9.97;;;;;;;;;;5034707;28;20899;-69
2021/01/02 07:51:29;;;;;;;12.40;8.57;;;;;;;;;;5032112;28;20415;-69
2021/01/02 07:53:55;;;;;;;14.93;9.90;;;;;;;;;;5034323;28;20457;-69
2021/01/02 07:56:36;;;;;;;16.20;10.40;;;;;;;;;;5033602;28;20411;-70
2021/01/02 07:59:20;;;;;;;18.67;8.90;;;;;;;;;;5033969;28;20908;-68
2021/01/02 08:01:54;;;;;;;13.33;8.10;;;;;;;;;;5048549;28;20454;-68
2021/01/02 08:04:21;;;;;;;17.00;11.13;;;;;;;;;;5033749;28;20466;-68
2021/01/02 08:06:47;;;;;;;17.13;10.03;;;;;;;;;;5033155;28;20438;-68
2021/01/02 08:09:13;;;;;;;12.57;9.60;;;;;;;;;;5034460;28;20406;-68
2021/01/02 08:11:46;;;;;;;15.87;9.30;;;;;;;;;;5033017;28;20925;-69
2021/01/02 08:14:12;;;;;;;17.73;9.43;;;;;;;;;;5034092;28;20506;-69
2021/01/02 08:16:38;;;;;;;17.90;10.10;;;;;;;;;;5033021;28;20462;-69
2021/01/02 08:19:05;;;;;;;14.50;8.30;;;;;;;;;;5034147;28;20407;-68
2021/01/02 08:21:38;;;;;;;16.37;9.40;;;;;;;;;;5033062;28;20905;-68
2021/01/02 08:24:04;;;;;;;16.57;10.60;;;;;;;;;;5033833;28;20459;-68
2021/01/02 08:26:31;;;;;;;16.07;9.87;;;;;;;;;;5030587;28;20518;-69
2021/01/02 08:28:57;;;;;;;17.17;9.83;;;;;;;;;;5033998;28;20407;-68
2021/01/02 08:31:24;;;;;;;16.10;10.70;;;;;;;;;;5033088;28;20399;-68
2021/01/02 08:33:51;;;;;;;15.00;9.87;;;;;;;;;;5033772;28;20447;-68
2021/01/02 08:36:18;;;;;;;13.03;8.93;;;;;;;;;;5034037;28;20469;-67
2021/01/02 08:38:45;;;;;;;13.33;8.67;;;;;;;;;;5032905;28;20935;-67
2021/01/02 08:41:18;;;;;;;24.27;10.87;;;;;;;;;;5034039;28;20426;-68
2021/01/02 08:43:48;;;;;;;17.50;9.20;;;;;;;;;;5032448;28;20475;-69
2021/01/02 08:46:14;;;;;;;14.63;9.33;;;;;;;;;;5033602;28;20403;-69
2021/01/02 08:48:46;;;;;;;14.13;9.33;;;;;;;;;;5032943;28;20462;-69
2021/01/02 08:51:22;;;;;;;16.73;9.60;;;;;;;;;;5032624;28;20426;-69
2021/01/02 08:53:48;;;;;;;14.40;9.47;;;;;;;;;;5032446;28;20462;-69
2021/01/02 08:56:20;;;;;;;16.47;10.43;;;;;;;;;;5033461;28;20403;-69
2021/01/02 08:58:46;;;;;;;16.67;9.07;;;;;;;;;;5031907;28;20438;-70
2021/01/02 09:01:12;;;;;;;14.53;9.60;;;;;;;;;;5024815;28;20419;-73
2021/01/02 09:03:38;;;;;;;19.07;10.27;;;;;;;;;;5033241;28;20521;-69
2021/01/02 09:06:17;;;;;;;18.73;9.57;;;;;;;;;;5026797;28;20433;-70
2021/01/02 09:08:43;;;;;;;19.10;9.07;;;;;;;;;;5024457;28;20423;-64
2021/01/02 09:11:09;;;;;;;18.73;10.47;;;;;;;;;;5029226;28;20854;-68
2021/01/02 09:13:35;;;;;;;17.60;10.20;;;;;;;;;;5024643;28;20452;-69
2021/01/02 09:16:03;;;;;;;19.77;10.13;;;;;;;;;;5031030;28;20419;-69
2021/01/02 09:18:32;;;;;;;18.93;10.83;;;;;;;;;;5032223;28;20435;-68
2021/01/02 09:21:24;;;;;;;19.10;10.27;;;;;;;;;;5033194;28;20403;-67
2021/01/02 09:23:51;;;;;;;16.40;9.63;;;;;;;;;;5027525;28;20494;-68
2021/01/02 09:26:19;;;;;;;16.07;9.70;;;;;;;;;;5033483;28;20763;-67
2021/01/02 09:28:46;;;;;;;17.27;9.93;;;;;;;;;;5031694;28;20431;-67
2021/01/02 09:31:12;;;;;;;19.73;9.70;;;;;;;;;;5031730;28;20427;-68
2021/01/02 09:33:38;;;;;;;14.73;9.70;;;;;;;;;;5032118;28;20480;-70
2021/01/02 09:36:05;;;;;;;17.20;10.40;;;;;;;;;;5032795;28;20442;-67
2021/01/02 09:38:31;;;;;;;16.90;9.70;;;;;;;;;;5032326;28;20507;-68
2021/01/02 09:40:57;;;;;;;14.03;8.80;;;;;;;;;;5033700;28;20446;-67
2021/01/02 09:43:23;;;;;;;15.43;9.63;;;;;;;;;;5033313;28;20517;-65
2021/01/02 09:45:49;;;;;;;18.87;11.40;;;;;;;;;;5036768;28;20833;-68
2021/01/02 09:48:17;;;;;;;19.03;10.03;;;;;;;;;;5032699;28;20485;-68
2021/01/02 09:50:43;;;;;;;22.90;11.73;;;;;;;;;;5032802;28;20423;-67
2021/01/02 09:53:10;;;;;;;20.60;11.52;;;;;;;;;;5029573;28;20902;-68
2021/01/02 09:55:36;;;;;;;19.10;11.10;;;;;;;;;;5032318;28;20267;-69
2021/01/02 09:58:02;;;;;;;16.60;10.37;;;;;;;;;;5031433;28;20994;-69
2021/01/02 10:00:28;;;;;;;21.30;11.37;;;;;;;;;;5032586;28;20399;-70
2021/01/02 10:02:54;;;;;;;19.17;11.60;;;;;;;;;;5031505;28;20485;-71
2021/01/02 10:05:21;;;;;;;18.33;11.17;;;;;;;;;;5038133;28;20473;-72
2021/01/02 10:07:47;;;;;;;20.43;13.20;;;;;;;;;;5047826;28;20421;-71
2021/01/02 10:10:15;;;;;;;16.83;10.30;;;;;;;;;;5032505;28;20391;-71
2021/01/02 10:12:41;;;;;;;16.63;10.60;;;;;;;;;;5032417;28;20427;-72
2021/01/02 10:15:08;;;;;;;17.57;10.07;;;;;;;;;;5032652;28;20442;-72
2021/01/02 10:17:34;;;;;;;17.00;10.90;;;;;;;;;;5031662;28;20407;-72
2021/01/02 10:20:00;;;;;;;17.00;9.70;;;;;;;;;;5032649;28;20414;-72
2021/01/02 10:22:26;;;;;;;17.60;10.67;;;;;;;;;;5035604;28;20506;-71
2021/01/02 10:24:53;;;;;;;18.70;10.90;;;;;;;;;;5034978;28;20970;-72
2021/01/02 10:27:19;;;;;;;17.53;11.20;;;;;;;;;;5036342;28;20443;-72
2021/01/02 10:29:46;;;;;;;17.57;10.20;;;;;;;;;;5035985;28;20435;-71
2021/01/02 10:32:13;;;;;;;18.73;11.23;;;;;;;;;;5036460;28;20403;-72
2021/01/02 10:34:40;;;;;;;16.60;11.27;;;;;;;;;;5033207;28;20438;-72
2021/01/02 10:37:06;;;;;;;21.70;10.90;;;;;;;;;;5036638;28;20411;-72
2021/01/02 10:39:32;;;;;;;19.20;10.47;;;;;;;;;;5036188;28;20473;-71
2021/01/02 10:41:58;;;;;;;17.43;10.77;;;;;;;;;;5034997;28;20843;-72
2021/01/02 10:44:24;;;;;;;18.43;12.33;;;;;;;;;;5036120;28;20462;-71
2021/01/02 10:46:51;;;;;;;18.27;11.53;;;;;;;;;;5035239;28;20520;-72
2021/01/02 10:49:19;;;;;;;17.53;10.37;;;;;;;;;;5035832;28;20416;-72
2021/01/02 10:51:48;;;;;;;19.90;11.20;;;;;;;;;;5034485;28;20440;-71
2021/01/02 10:54:15;;;;;;;15.60;10.10;;;;;;;;;;5035271;28;20470;-71
2021/01/02 10:56:45;;;;;;;19.70;11.60;;;;;;;;;;5033548;28;20434;-71
2021/01/02 10:59:11;;;;;;;20.00;11.13;;;;;;;;;;5033536;28;20473;-71
2021/01/02 11:01:41;;;;;;;15.50;10.07;;;;;;;;;;5034829;28;20462;-71
2021/01/02 11:04:08;;;;;;;18.83;10.57;;;;;;;;;;5035322;28;20981;-71
2021/01/02 11:06:34;;;;;;;15.00;9.00;;;;;;;;;;5033438;28;20715;-71
2021/01/02 11:09:00;;;;;;;19.20;11.23;;;;;;;;;;5032844;28;20441;-71
2021/01/02 11:11:26;;;;;;;20.70;10.97;;;;;;;;;;5033397;28;20434;-71
2021/01/02 11:13:52;;;;;;;13.47;9.53;;;;;;;;;;5035275;28;20424;-70
2021/01/02 11:16:18;;;;;;;17.27;10.90;;;;;;;;;;5034891;28;20430;-71
2021/01/02 11:18:44;;;;;;;19.17;10.70;;;;;;;;;;5035503;28;20412;-71
2021/01/02 11:21:11;;;;;;;21.90;10.93;;;;;;;;;;5034565;28;20513;-71
2021/01/02 11:23:37;;;;;;;20.50;10.70;;;;;;;;;;5034979;28;20474;-71
2021/01/02 11:26:09;;;;;;;18.53;10.70;;;;;;;;;;5034824;28;20466;-72
2021/01/02 11:28:36;;;;;;;20.17;11.50;;;;;;;;;;5035251;28;20414;-72
2021/01/02 11:31:02;;;;;;;19.00;10.60;;;;;;;;;;5034130;28;20424;-71
2021/01/02 11:33:27;;;;;;;15.13;11.20;;;;;;;;;;5032998;28;20473;-71
2021/01/02 11:35:54;;;;;;;20.80;11.27;;;;;;;;;;5029534;28;20435;-72
2021/01/02 11:38:19;;;;;;;21.87;10.60;;;;;;;;;;5035011;28;20410;-71
2021/01/02 11:40:45;;;;;;;21.20;10.90;;;;;;;;;;5034541;28;20627;-71
2021/01/02 11:43:11;;;;;;;19.97;13.53;;;;;;;;;;5034490;28;20422;-71
2021/01/02 11:45:37;;;;;;;16.93;11.03;;;;;;;;;;5033829;28;20517;-72
2021/01/02 11:48:04;;;;;;;15.77;10.30;;;;;;;;;;5034560;28;20553;-71
2021/01/02 11:50:30;;;;;;;20.77;10.70;;;;;;;;;;5033575;28;20431;-71
2021/01/02 11:52:56;;;;;;;21.00;12.07;;;;;;;;;;5034427;28;20444;-72
2021/01/02 11:55:22;;;;;;;23.53;12.30;;;;;;;;;;5033631;28;20516;-72
2021/01/02 11:57:47;;;;;;;23.33;10.97;;;;;;;;;;5034346;28;20945;-71
2021/01/02 12:00:14;;;;;;;19.07;11.80;;;;;;;;;;5032916;28;20515;-71
2021/01/02 12:02:41;;;;;;;21.47;13.10;;;;;;;;;;5032618;28;20959;-71
2021/01/02 12:05:07;;;;;;;21.67;11.70;;;;;;;;;;5032149;28;20466;-72
2021/01/02 12:07:33;;;;;;;25.70;12.57;;;;;;;;;;5033778;28;20426;-71
2021/01/02 12:09:59;;;;;;;19.33;11.03;;;;;;;;;;5031816;28;20419;-71
2021/01/02 12:12:25;;;;;;;20.13;12.30;;;;;;;;;;5034056;28;20457;-71
2021/01/02 12:14:51;;;;;;;21.00;11.80;;;;;;;;;;5032232;28;20414;-72
2021/01/02 12:17:17;;;;;;;29.20;13.27;;;;;;;;;;5034289;28;20480;-71
2021/01/02 12:19:46;;;;;;;21.53;12.00;;;;;;;;;;5034006;28;20415;-71
2021/01/02 12:22:12;;;;;;;19.87;11.87;;;;;;;;;;5032816;28;20427;-71
2021/01/02 12:24:38;;;;;;;25.87;12.70;;;;;;;;;;5034317;28;20871;-71
2021/01/02 12:27:06;;;;;;;17.23;11.23;;;;;;;;;;5032795;28;20476;-71
2021/01/02 12:29:32;;;;;;;22.83;12.77;;;;;;;;;;5034435;28;20407;-71
2021/01/02 12:32:00;;;;;;;27.00;13.93;;;;;;;;;;5033255;28;20449;-71
2021/01/02 12:34:27;;;;;;;18.27;11.80;;;;;;;;;;5033853;28;20415;-71
2021/01/02 12:36:54;;;;;;;20.63;13.57;;;;;;;;;;5032125;28;20454;-71
2021/01/02 12:39:22;;;;;;;22.50;14.33;;;;;;;;;;5034025;28;20430;-71
2021/01/02 12:41:48;;;;;;;26.87;13.80;;;;;;;;;;5032875;28;20845;-71
2021/01/02 12:44:14;;;;;;;33.20;16.40;;;;;;;;;;5033177;28;20935;-71
2021/01/02 12:46:42;;;;;;;25.67;14.60;;;;;;;;;;5031629;28;20431;-71
2021/01/02 12:49:08;;;;;;;24.33;14.57;;;;;;;;;;5033439;28;20415;-71
2021/01/02 12:51:34;;;;;;;32.87;15.20;;;;;;;;;;5031488;28;20437;-71
2021/01/02 12:54:00;;;;;;;30.80;14.43;;;;;;;;;;5033419;28;20451;-71
2021/01/02 12:56:26;;;;;;;25.60;14.57;;;;;;;;;;5032297;28;20511;-72
2021/01/02 12:58:52;;;;;;;29.50;15.40;;;;;;;;;;5033635;28;20464;-71
2021/01/02 13:01:18;;;;;;;28.07;15.20;;;;;;;;;;5032529;28;20423;-71
2021/01/02 13:03:44;;;;;;;33.63;19.20;;;;;;;;;;5033363;28;20944;-71
2021/01/02 13:06:14;;;;;;;40.63;17.83;;;;;;;;;;5031601;28;20431;-71
2021/01/02 13:08:40;;;;;;;36.33;15.83;;;;;;;;;;5033204;28;20900;-71
2021/01/02 13:11:07;;;;;;;35.00;16.30;;;;;;;;;;5033209;28;20431;-71
2021/01/02 13:13:33;;;;;;;34.17;17.37;;;;;;;;;;5033212;28;20434;-71
2021/01/02 13:15:59;;;;;;;36.77;17.63;;;;;;;;;;5032046;28;20489;-71
2021/01/02 13:18:25;;;;;;;27.67;17.37;;;;;;;;;;5033544;28;20463;-70
2021/01/02 13:20:51;;;;;;;35.00;17.13;;;;;;;;;;5032490;28;20888;-73
2021/01/02 13:23:18;;;;;;;41.77;17.20;;;;;;;;;;5033236;28;20445;-71
2021/01/02 13:25:44;;;;;;;33.33;17.53;;;;;;;;;;5031881;28;20450;-71
2021/01/02 13:28:10;;;;;;;37.07;16.63;;;;;;;;;;5032241;28;20510;-70
2021/01/02 13:30:36;;;;;;;34.10;16.60;;;;;;;;;;5033397;28;20452;-70
2021/01/02 13:33:02;;;;;;;35.00;16.90;;;;;;;;;;5032064;28;20435;-70
2021/01/02 13:35:28;;;;;;;34.13;17.37;;;;;;;;;;5032954;28;20916;-72
2021/01/02 13:37:54;;;;;;;34.43;17.90;;;;;;;;;;5027611;28;20476;-72
2021/01/02 13:40:20;;;;;;;39.13;18.70;;;;;;;;;;5033098;28;20415;-72
2021/01/02 13:42:46;;;;;;;34.20;18.10;;;;;;;;;;5031954;28;20451;-70
2021/01/02 13:45:13;;;;;;;38.97;21.27;;;;;;;;;;5033263;28;20503;-70
2021/01/02 13:47:39;;;;;;;40.13;20.17;;;;;;;;;;5031917;28;20423;-71
2021/01/02 13:50:06;;;;;;;43.03;18.90;;;;;;;;;;5033129;28;20615;-72
2021/01/02 13:52:32;;;;;;;46.40;18.07;;;;;;;;;;5031736;28;20481;-70
2021/01/02 13:54:58;;;;;;;44.93;18.07;;;;;;;;;;5047048;28;20438;-71
2021/01/02 13:57:24;;;;;;;33.40;16.87;;;;;;;;;;5035817;28;20423;-71
2021/01/02 13:59:51;;;;;;;41.03;19.23;;;;;;;;;;5035368;28;20782;-71
2021/01/02 14:02:17;;;;;;;42.53;17.53;;;;;;;;;;5034770;28;20509;-71
2021/01/02 14:04:43;;;;;;;42.90;19.27;;;;;;;;;;5036781;28;20459;-71
2021/01/02 14:07:09;;;;;;;43.30;16.63;;;;;;;;;;5035524;28;20433;-71
2021/01/02 14:09:36;;;;;;;42.20;20.83;;;;;;;;;;5036987;28;20406;-70
2021/01/02 14:12:03;;;;;;;42.50;17.33;;;;;;;;;;5035603;28;20750;-71
2021/01/02 14:14:29;;;;;;;43.00;18.50;;;;;;;;;;5036823;28;20990;-71
2021/01/02 14:16:59;;;;;;;33.07;18.27;;;;;;;;;;5035151;28;20939;-71
2021/01/02 14:19:26;;;;;;;35.57;16.37;;;;;;;;;;5036372;28;20887;-71
2021/01/02 14:21:53;;;;;;;35.47;15.80;;;;;;;;;;5035466;28;20430;-71
2021/01/02 14:24:20;;;;;;;41.80;17.50;;;;;;;;;;5036512;28;20461;-71
2021/01/02 14:26:47;;;;;;;32.83;17.47;;;;;;;;;;5035288;28;20433;-71
2021/01/02 14:29:13;;;;;;;29.23;16.70;;;;;;;;;;5036580;28;20981;-71
2021/01/02 14:31:40;;;;;;;35.50;19.00;;;;;;;;;;5034405;28;20572;-71